This demonstration page uses our WeatherBlox Daily Observations layout. Learn more.

39.92423, -83.80882

Hourly Observations for May 22, 2015

Temp ( °F °C ) Dew Point ( °F °C ) Humidity (%) Winds ( mph kmh ) Pressure ( in mb ) Visibility ( mi km ) Precip ( " mm )
12:56 am 00:56 Hazy 47 8.3 42 5.5 83 83 SSW 8 13 30.12 1020 6 9.65604 0 0
1:56 am 01:56 Clear with Mist and Fog 46 7.7 42 5.5 86 86 SW 7 11 30.11 1020 6 9.65604 0 0
2:56 am 02:56 Clear with Mist and Fog 43 6.1 41 5 93 93 SW 6 9 30.12 1020 6 9.65604 0 0
3:56 am 03:56 Clear with Mist and Fog 43 6.1 42 5.5 96 96 SW 8 13 30.12 1020 6 9.65604 0 0
4:56 am 04:56 Clear with Mist and Fog 42 5.5 41 5 97 97 SW 6 9 30.13 1020 6 9.65604 0 0
5:56 am 05:56 Clear with Mist and Fog 42 5.5 41 5 97 97 SSW 7 11 30.14 1021 6 9.65604 0 0
6:56 am 06:56 Sunny with Mist and Fog 43 6.1 43 6.1 100 100 SW 8 13 30.17 1022 4 6.43736 0 0
7:56 am 07:56 Sunny with Mist and Fog 48 8.8 45 7.2 90 90 WSW 7 11 30.19 1022 5 8.0467 0 0
8:56 am 08:56 Hazy 54 12.2 46 7.7 74 74 WSW 10 17 30.19 1022 5 8.0467 0 0
9:56 am 09:56 Hazy 59 15 47 8.3 64 64 WSW 10 17 30.2 1023 5 8.0467 0 0
10:56 am 10:56 Hazy 63 17.2 48 8.8 58 58 W 13 20 30.21 1023 5 8.0467 0 0
11:56 am 11:56 Hazy 67 19.4 51 10.5 57 57 W 12 19 30.21 1023 5 8.0467 0 0
12:56 pm 12:56 Hazy 70 21.1 50 10 49 49 WSW 10 17 30.2 1023 6 9.65604 0 0
1:56 pm 13:56 Mostly Cloudy with Haze 71 21.6 48 8.8 44 44 W 15 24 30.2 1023 6 9.65604 0 0
2:56 pm 14:56 Hazy 73 22.7 50 10 45 45 WSW 9 15 30.19 1023 6 9.65604 0 0
3:56 pm 15:56 Hazy 74 23.3 47 8.3 38 38 W 15 24 30.19 1022 6 9.65604 0 0
4:56 pm 16:56 Hazy 76 24.4 45 7.2 33 33 W 13 20 30.19 1022 5 8.0467 0 0
5:56 pm 17:56 Hazy 74 23.3 47 8.3 38 38 NW 13 20 30.2 1023 6 9.65604 0 0
6:56 pm 18:56 Hazy 71 21.6 47 8.3 43 43 NW 13 20 30.21 1023 5 8.0467 0 0
7:56 pm 19:56 Hazy 69 20.5 46 7.7 44 44 NW 10 17 30.23 1024 6 9.65604 0 0
8:56 pm 20:56 Hazy 64 17.7 47 8.3 54 54 NNW 5 7 30.24 1024 5 8.0467 0 0
9:56 pm 21:56 Clear 60 15.5 46 7.7 60 60 Calm 30.26 1025 7 11.26538 0 0
10:56 pm 22:56 Clear 57 13.8 45 7.2 65 65 ENE 3 6 30.29 1026 7 11.26538 0 0
11:56 pm 23:56 Clear 55 12.7 43 6.1 64 64 NE 5 7 30.3 1026 7 11.26538 0 0

Powered by AerisWeather